createdAt,value
2022-08-31T00:00:38.864Z,31.00
2022-08-31T00:03:27.624Z,15.80
2022-08-31T00:06:02.087Z,12.80
2022-08-31T00:08:31.823Z,13.40
2022-08-31T00:11:01.020Z,15.30
2022-08-31T00:13:29.902Z,14.10
2022-08-31T00:15:58.612Z,13.20
2022-08-31T00:18:26.795Z,15.70
2022-08-31T00:20:55.256Z,13.80
2022-08-31T00:23:23.633Z,16.30
2022-08-31T00:25:52.228Z,15.40
2022-08-31T00:28:20.707Z,17.20
2022-08-31T00:30:49.887Z,16.50
2022-08-31T00:33:18.361Z,18.40
2022-08-31T00:35:46.907Z,16.70
2022-08-31T00:38:15.743Z,18.60
2022-08-31T00:40:47.564Z,18.60
2022-08-31T00:43:54.574Z,17.30
2022-08-31T00:46:27.553Z,15.20
2022-08-31T00:49:04.497Z,16.90
2022-08-31T00:51:41.884Z,14.70
2022-08-31T00:54:12.664Z,13.90
2022-08-31T00:56:44.285Z,11.80
2022-08-31T00:59:16.465Z,13.40
2022-08-31T01:01:45.090Z,13.70
2022-08-31T01:04:13.364Z,15.70
2022-08-31T01:06:42.557Z,15.50
2022-08-31T01:09:13.134Z,16.40
2022-08-31T01:11:42.613Z,13.80
2022-08-31T01:14:12.034Z,14.50
2022-08-31T01:16:49.943Z,13.80
2022-08-31T01:19:37.924Z,13.30
2022-08-31T01:22:44.643Z,14.60
2022-08-31T01:25:14.203Z,10.60
2022-08-31T01:27:42.688Z,14.40
2022-08-31T01:30:20.120Z,13.50
2022-08-31T01:32:48.928Z,19.90
2022-08-31T01:35:17.462Z,13.50
2022-08-31T01:37:45.745Z,16.80
2022-08-31T01:40:16.887Z,15.40
2022-08-31T01:42:48.881Z,13.20
2022-08-31T01:45:17.579Z,16.80
2022-08-31T01:47:45.769Z,18.70
2022-08-31T01:50:14.231Z,14.60
2022-08-31T01:52:42.458Z,15.90
2022-08-31T01:55:11.153Z,16.80
2022-08-31T01:57:39.360Z,17.80
2022-08-31T02:00:54.317Z,14.40
2022-08-31T02:03:22.563Z,16.80
2022-08-31T02:05:50.751Z,16.70
2022-08-31T02:08:19.253Z,21.40
2022-08-31T02:10:47.837Z,18.60
2022-08-31T02:13:16.408Z,19.90
2022-08-31T02:15:44.895Z,18.20
2022-08-31T02:18:13.132Z,17.10
2022-08-31T02:20:41.824Z,21.60
2022-08-31T02:23:10.093Z,21.30
2022-08-31T02:25:38.381Z,16.40
2022-08-31T02:28:07.167Z,16.50
2022-08-31T02:30:35.838Z,12.30
2022-08-31T02:33:04.583Z,11.60
2022-08-31T02:35:33.091Z,12.90
2022-08-31T02:38:01.884Z,12.10
2022-08-31T02:40:31.876Z,13.80
2022-08-31T02:43:00.151Z,13.30
2022-08-31T02:45:28.332Z,12.00
2022-08-31T02:48:04.391Z,11.50
2022-08-31T02:50:48.940Z,9.30
2022-08-31T02:53:21.224Z,11.40
2022-08-31T02:55:50.196Z,9.90
2022-08-31T02:58:23.320Z,10.00
2022-08-31T03:00:53.135Z,12.80
2022-08-31T03:03:22.032Z,16.20
2022-08-31T03:05:50.839Z,12.40
2022-08-31T03:08:19.073Z,12.50
2022-08-31T03:10:48.940Z,14.40
2022-08-31T03:13:18.720Z,12.90
2022-08-31T03:15:47.494Z,16.00
2022-08-31T03:18:17.562Z,15.50
2022-08-31T03:20:45.806Z,11.80
2022-08-31T03:23:15.458Z,14.30
2022-08-31T03:25:43.810Z,15.40
2022-08-31T03:28:12.709Z,11.60
2022-08-31T03:30:42.751Z,13.00
2022-08-31T03:33:12.784Z,15.20
2022-08-31T03:35:44.935Z,16.20
2022-08-31T03:38:14.221Z,15.70
2022-08-31T03:40:44.465Z,15.00
2022-08-31T03:43:14.255Z,15.90
2022-08-31T03:45:44.115Z,13.00
2022-08-31T03:48:13.276Z,12.80
2022-08-31T03:50:43.952Z,12.70
2022-08-31T03:53:22.423Z,15.70
2022-08-31T03:55:52.348Z,12.10
2022-08-31T03:58:20.511Z,13.30
2022-08-31T04:00:49.193Z,11.50
2022-08-31T04:03:30.803Z,14.40
2022-08-31T04:06:17.269Z,15.90
2022-08-31T04:09:39.201Z,13.10
2022-08-31T04:12:48.052Z,9.30
2022-08-31T04:15:37.771Z,11.40
2022-08-31T04:18:37.129Z,10.30
2022-08-31T04:21:12.665Z,8.50
2022-08-31T04:23:41.322Z,7.60
2022-08-31T04:26:27.556Z,9.00
2022-08-31T04:28:56.822Z,10.80
2022-08-31T04:31:27.091Z,8.60
2022-08-31T04:33:56.904Z,9.60
2022-08-31T04:36:27.993Z,11.30
2022-08-31T04:39:00.187Z,8.80
2022-08-31T04:41:30.895Z,13.60
2022-08-31T04:44:01.321Z,7.40
2022-08-31T04:46:36.186Z,7.70
2022-08-31T04:49:05.279Z,9.00
2022-08-31T04:51:35.638Z,8.50
2022-08-31T04:54:08.863Z,9.50
2022-08-31T04:56:44.937Z,11.10
2022-08-31T04:59:18.993Z,9.90
2022-08-31T05:02:06.602Z,9.50
2022-08-31T05:04:45.448Z,12.30
2022-08-31T05:07:13.831Z,9.00
2022-08-31T05:09:42.125Z,11.90
2022-08-31T05:12:10.377Z,8.40
2022-08-31T05:14:39.448Z,9.80
2022-08-31T05:17:16.784Z,14.40
2022-08-31T05:19:45.138Z,9.80
2022-08-31T05:22:15.149Z,9.40
2022-08-31T05:24:45.500Z,8.70
2022-08-31T05:27:14.043Z,11.70
2022-08-31T05:29:42.465Z,15.80
2022-08-31T05:32:53.340Z,13.50
2022-08-31T05:35:21.547Z,15.90
2022-08-31T05:37:51.103Z,13.50
2022-08-31T05:40:20.444Z,14.20
2022-08-31T05:42:48.648Z,13.40
2022-08-31T05:45:18.947Z,19.80
2022-08-31T05:47:48.093Z,17.40
2022-08-31T05:50:18.578Z,19.60
2022-08-31T05:52:47.185Z,23.50
2022-08-31T05:55:15.761Z,21.30
2022-08-31T05:57:44.006Z,22.40
2022-08-31T06:00:12.756Z,23.30
2022-08-31T06:02:45.345Z,23.80
2022-08-31T06:05:15.137Z,21.60
2022-08-31T06:07:45.857Z,24.50
2022-08-31T06:10:15.987Z,23.50
2022-08-31T06:12:47.398Z,26.60
2022-08-31T06:15:16.390Z,20.70
2022-08-31T06:17:45.245Z,23.30
2022-08-31T06:20:17.800Z,24.00
2022-08-31T06:22:47.998Z,26.40
2022-08-31T06:25:26.070Z,20.80
2022-08-31T06:27:56.606Z,23.40
2022-08-31T06:30:27.461Z,21.00
2022-08-31T06:32:58.683Z,21.20
2022-08-31T06:35:33.972Z,23.00
2022-08-31T06:38:46.220Z,24.50
2022-08-31T06:41:56.208Z,20.80
2022-08-31T06:44:38.721Z,20.00
2022-08-31T06:47:10.171Z,17.80
2022-08-31T06:49:41.516Z,19.90
2022-08-31T06:52:09.840Z,18.10
2022-08-31T06:54:40.905Z,17.90
2022-08-31T06:57:27.676Z,24.30
2022-08-31T07:00:59.319Z,24.00
2022-08-31T07:04:11.956Z,25.80
2022-08-31T07:06:44.448Z,28.70
2022-08-31T07:09:17.910Z,30.30
2022-08-31T07:11:51.310Z,31.10
2022-08-31T07:14:23.723Z,28.70
2022-08-31T07:16:56.662Z,26.50
2022-08-31T07:19:26.218Z,27.80
2022-08-31T07:21:59.608Z,27.20
2022-08-31T07:24:33.376Z,27.70
2022-08-31T07:27:10.234Z,27.40
2022-08-31T07:29:48.427Z,21.10
2022-08-31T07:32:17.566Z,19.20
2022-08-31T07:34:46.393Z,22.10
2022-08-31T07:37:43.256Z,19.10
2022-08-31T07:40:30.582Z,20.20
2022-08-31T07:43:04.646Z,23.40
2022-08-31T07:45:37.812Z,22.10
2022-08-31T07:48:08.482Z,19.40
2022-08-31T07:50:56.551Z,17.00
2022-08-31T07:53:47.542Z,15.60
2022-08-31T07:56:27.221Z,14.90
2022-08-31T07:59:11.420Z,17.70
2022-08-31T08:01:43.409Z,13.40
2022-08-31T08:04:15.925Z,14.20
2022-08-31T08:07:37.339Z,12.80
2022-08-31T08:10:24.344Z,18.90
2022-08-31T08:13:28.294Z,15.50
2022-08-31T08:16:07.466Z,27.00
2022-08-31T08:18:50.657Z,14.80
2022-08-31T08:21:22.586Z,14.50
2022-08-31T08:23:52.033Z,14.60
2022-08-31T08:26:35.573Z,13.60
2022-08-31T08:29:09.232Z,17.50
2022-08-31T08:31:43.539Z,17.90
2022-08-31T08:34:11.890Z,14.40
2022-08-31T08:36:40.918Z,13.40
2022-08-31T08:39:12.990Z,15.60
2022-08-31T08:41:45.627Z,20.50
2022-08-31T08:44:18.146Z,17.00
2022-08-31T08:46:58.556Z,15.20
2022-08-31T08:49:54.218Z,14.40
2022-08-31T08:52:43.517Z,18.90
2022-08-31T08:55:18.319Z,14.30
2022-08-31T08:57:52.195Z,12.40
2022-08-31T09:00:28.593Z,25.60
2022-08-31T09:03:12.163Z,36.30
2022-08-31T09:06:09.551Z,17.30
2022-08-31T09:09:08.350Z,15.90
2022-08-31T09:12:36.204Z,14.40
2022-08-31T09:15:26.803Z,15.00
2022-08-31T09:18:08.432Z,19.20
2022-08-31T09:20:36.864Z,17.30
2022-08-31T09:23:08.031Z,22.10
2022-08-31T09:25:52.581Z,13.60
2022-08-31T09:28:47.385Z,29.90
2022-08-31T09:31:39.759Z,25.80
2022-08-31T09:34:37.259Z,14.50
2022-08-31T09:37:19.433Z,13.50
2022-08-31T09:39:50.674Z,15.40
2022-08-31T09:42:33.879Z,10.60
2022-08-31T09:45:37.815Z,39.80
2022-08-31T09:48:09.925Z,13.50
2022-08-31T09:50:45.480Z,13.50
2022-08-31T09:53:46.147Z,29.20
2022-08-31T09:56:20.871Z,14.60
2022-08-31T09:58:50.477Z,12.70
2022-08-31T10:01:31.929Z,10.30
2022-08-31T10:04:23.509Z,12.60
2022-08-31T10:07:31.754Z,11.90
2022-08-31T10:10:14.720Z,12.60
2022-08-31T10:13:10.511Z,12.90
2022-08-31T10:15:54.439Z,15.00
2022-08-31T10:18:33.531Z,10.20
2022-08-31T10:21:21.436Z,11.20
2022-08-31T10:24:06.221Z,13.40
2022-08-31T10:26:46.573Z,9.90
2022-08-31T10:29:40.644Z,10.70
2022-08-31T10:32:52.560Z,10.10
2022-08-31T10:35:37.516Z,13.30
2022-08-31T10:38:26.504Z,9.70
2022-08-31T10:41:11.756Z,9.60
2022-08-31T10:43:46.073Z,9.40
2022-08-31T10:46:15.775Z,12.00
2022-08-31T10:48:47.220Z,10.30
2022-08-31T10:51:40.263Z,12.50
2022-08-31T10:54:54.766Z,11.00
2022-08-31T10:57:53.124Z,11.40
2022-08-31T11:00:41.663Z,10.90
2022-08-31T11:03:35.690Z,14.00
2022-08-31T11:06:28.312Z,15.80
2022-08-31T11:09:33.348Z,12.40
2022-08-31T11:12:21.717Z,11.50
2022-08-31T11:15:44.122Z,10.80
2022-08-31T11:18:40.441Z,12.20
2022-08-31T11:21:39.165Z,12.10
2022-08-31T11:25:03.480Z,10.70
2022-08-31T11:27:44.529Z,12.00
2022-08-31T11:30:42.254Z,14.10
2022-08-31T11:33:20.322Z,12.40
2022-08-31T11:36:05.398Z,14.90
2022-08-31T11:38:40.305Z,12.60
2022-08-31T11:41:12.062Z,10.80
2022-08-31T11:43:47.022Z,11.90
2022-08-31T11:46:26.711Z,13.40
2022-08-31T11:48:55.460Z,11.10
2022-08-31T11:51:45.548Z,12.60
2022-08-31T11:54:27.088Z,13.10
2022-08-31T11:56:57.044Z,9.70
2022-08-31T11:59:34.105Z,10.30
2022-08-31T12:02:23.207Z,9.50
2022-08-31T12:05:03.296Z,9.60
2022-08-31T12:07:45.424Z,7.80
2022-08-31T12:10:42.473Z,9.40
2022-08-31T12:13:36.519Z,7.30
2022-08-31T12:16:31.323Z,6.70
2022-08-31T12:19:34.371Z,8.50
2022-08-31T12:22:44.681Z,6.90
2022-08-31T12:25:26.355Z,6.70
2022-08-31T12:28:35.613Z,10.60
2022-08-31T12:31:14.271Z,7.10
2022-08-31T12:33:59.505Z,8.40
2022-08-31T12:36:31.265Z,7.90
2022-08-31T12:39:26.043Z,8.20
2022-08-31T12:42:04.667Z,6.80
2022-08-31T12:44:51.122Z,6.30
2022-08-31T12:47:38.500Z,7.10
2022-08-31T12:51:07.893Z,5.80
2022-08-31T12:54:00.459Z,6.10
2022-08-31T12:57:26.967Z,6.60
2022-08-31T13:00:08.043Z,9.60
2022-08-31T13:02:46.194Z,5.40
2022-08-31T13:05:33.234Z,6.40
2022-08-31T13:08:01.999Z,6.30
2022-08-31T13:10:35.503Z,6.00
2022-08-31T13:13:10.468Z,6.30
2022-08-31T13:15:43.715Z,6.20
2022-08-31T13:18:22.691Z,5.90
2022-08-31T13:21:06.026Z,6.40
2022-08-31T13:23:44.881Z,5.60
2022-08-31T13:26:21.127Z,5.80
2022-08-31T13:28:58.726Z,5.70
2022-08-31T13:31:31.622Z,6.00
2022-08-31T13:34:07.292Z,5.30
2022-08-31T13:37:03.175Z,6.00
2022-08-31T13:39:39.259Z,5.50
2022-08-31T13:42:20.220Z,6.10
2022-08-31T13:44:56.965Z,6.80
2022-08-31T13:47:45.825Z,8.10
2022-08-31T13:50:30.871Z,7.70
2022-08-31T13:53:25.864Z,7.10
2022-08-31T13:55:52.548Z,5.60
2022-08-31T13:58:32.101Z,6.00
2022-08-31T14:01:26.558Z,10.30
2022-08-31T14:03:59.096Z,6.50
2022-08-31T14:06:38.951Z,6.40
2022-08-31T14:09:18.821Z,6.20
2022-08-31T14:11:54.025Z,6.00
2022-08-31T14:14:39.878Z,7.70
2022-08-31T14:17:16.492Z,5.60
2022-08-31T14:19:45.677Z,7.20
2022-08-31T14:22:30.102Z,6.60
2022-08-31T14:25:00.842Z,7.00
2022-08-31T14:27:30.156Z,5.50
2022-08-31T14:29:58.554Z,6.70
2022-08-31T14:32:29.416Z,7.00
2022-08-31T14:34:59.204Z,5.70
2022-08-31T14:37:30.267Z,7.30
2022-08-31T14:40:04.301Z,6.50
2022-08-31T14:42:39.058Z,7.20
2022-08-31T14:45:18.668Z,5.20
2022-08-31T14:47:52.306Z,7.20
2022-08-31T14:50:25.556Z,8.60
2022-08-31T14:52:55.309Z,5.70
2022-08-31T14:55:26.952Z,7.50
2022-08-31T14:58:03.809Z,7.00
2022-08-31T15:00:33.950Z,6.40
2022-08-31T15:03:02.585Z,6.90
2022-08-31T15:05:32.420Z,5.00
2022-08-31T15:08:01.170Z,6.10
2022-08-31T15:10:29.416Z,4.60
2022-08-31T15:12:58.563Z,5.20
2022-08-31T15:15:26.815Z,5.50
2022-08-31T15:17:56.875Z,5.10
2022-08-31T15:20:25.149Z,6.70
2022-08-31T15:22:53.428Z,5.80
2022-08-31T15:25:25.088Z,5.40
2022-08-31T15:27:53.425Z,6.10
2022-08-31T15:30:23.152Z,6.30
2022-08-31T15:32:53.251Z,5.90
2022-08-31T15:35:26.576Z,5.20
2022-08-31T15:38:01.230Z,4.50
2022-08-31T15:40:38.598Z,7.20
2022-08-31T15:43:11.576Z,7.50
2022-08-31T15:45:39.923Z,5.90
2022-08-31T15:48:26.863Z,4.20
2022-08-31T15:51:00.768Z,6.00
2022-08-31T15:53:30.857Z,7.50
2022-08-31T15:56:06.332Z,9.40
2022-08-31T15:58:39.067Z,5.40
2022-08-31T16:03:51.362Z,7.10
2022-08-31T16:06:32.646Z,7.60
2022-08-31T16:09:02.708Z,4.90
2022-08-31T16:11:37.214Z,9.00
2022-08-31T16:14:10.873Z,8.20
2022-08-31T16:16:42.540Z,4.90
2022-08-31T16:19:27.803Z,4.50
2022-08-31T16:22:03.075Z,8.10
2022-08-31T16:24:36.071Z,6.90
2022-08-31T16:27:12.019Z,7.20
2022-08-31T16:29:41.444Z,5.10
2022-08-31T16:32:10.024Z,8.20
2022-08-31T16:34:40.168Z,5.80
2022-08-31T16:37:08.892Z,6.40
2022-08-31T16:39:43.984Z,5.60
2022-08-31T16:42:13.168Z,7.20
2022-08-31T16:44:46.999Z,6.40
2022-08-31T16:47:18.806Z,6.30
2022-08-31T16:49:47.699Z,4.30
2022-08-31T16:52:26.798Z,6.40
2022-08-31T16:54:57.401Z,5.90
2022-08-31T16:57:29.652Z,6.40
2022-08-31T16:59:59.346Z,7.00
2022-08-31T17:02:28.010Z,5.70
2022-08-31T17:05:00.735Z,5.70
2022-08-31T17:07:29.164Z,6.50
2022-08-31T17:10:04.073Z,9.20
2022-08-31T17:12:32.856Z,6.90
2022-08-31T17:15:04.268Z,6.40
2022-08-31T17:17:33.099Z,8.10
2022-08-31T17:20:01.427Z,7.30
2022-08-31T17:22:33.630Z,6.90
2022-08-31T17:25:04.726Z,7.50
2022-08-31T17:27:34.857Z,5.60
2022-08-31T17:30:07.026Z,7.50
2022-08-31T17:32:39.264Z,11.60
2022-08-31T17:35:19.124Z,6.20
2022-08-31T17:37:50.035Z,8.40
2022-08-31T17:40:18.654Z,7.80
2022-08-31T17:42:48.573Z,6.60
2022-08-31T17:45:17.708Z,7.10
2022-08-31T17:47:46.008Z,8.10
2022-08-31T17:50:17.230Z,7.40
2022-08-31T17:52:47.535Z,6.50
2022-08-31T17:55:16.077Z,6.30
2022-08-31T17:57:45.136Z,5.40
2022-08-31T18:00:16.867Z,6.90
2022-08-31T18:02:46.134Z,6.80
2022-08-31T18:05:16.363Z,9.40
2022-08-31T18:07:44.722Z,7.20
2022-08-31T18:10:13.045Z,19.80
2022-08-31T18:12:42.264Z,10.70
2022-08-31T18:15:12.734Z,9.00
2022-08-31T18:17:41.032Z,7.10
2022-08-31T18:20:12.519Z,6.70
2022-08-31T18:22:40.870Z,7.10
2022-08-31T18:25:10.668Z,5.70
2022-08-31T18:27:38.982Z,6.50
2022-08-31T18:30:09.892Z,6.00
2022-08-31T18:32:38.118Z,6.60
2022-08-31T18:35:14.306Z,7.50
2022-08-31T18:37:42.661Z,5.40
2022-08-31T18:40:29.573Z,4.60
2022-08-31T18:43:16.888Z,4.60
2022-08-31T18:45:50.142Z,5.20
2022-08-31T18:48:25.245Z,5.70
2022-08-31T18:50:58.979Z,4.10
2022-08-31T18:53:30.310Z,5.90
2022-08-31T18:56:09.040Z,5.30
2022-08-31T18:58:38.435Z,5.80
2022-08-31T19:01:10.434Z,4.70
2022-08-31T19:03:41.027Z,5.10
2022-08-31T19:06:19.908Z,5.10
2022-08-31T19:08:49.060Z,6.60
2022-08-31T19:11:21.527Z,5.30
2022-08-31T19:13:51.513Z,4.70
2022-08-31T19:16:28.098Z,6.20
2022-08-31T19:18:58.597Z,4.90
2022-08-31T19:21:34.315Z,6.60
2022-08-31T19:24:07.378Z,5.30
2022-08-31T19:26:53.488Z,5.80
2022-08-31T19:29:26.660Z,6.20
2022-08-31T19:31:57.527Z,5.60
2022-08-31T19:34:32.959Z,4.90
2022-08-31T19:37:01.999Z,6.70
2022-08-31T19:39:37.027Z,8.20
2022-08-31T19:42:08.143Z,7.40
2022-08-31T19:44:55.002Z,8.20
2022-08-31T19:47:26.564Z,6.40
2022-08-31T19:49:55.241Z,9.60
2022-08-31T19:52:24.447Z,7.20
2022-08-31T19:54:52.737Z,8.60
2022-08-31T19:57:22.537Z,8.90
2022-08-31T19:59:50.916Z,10.30
2022-08-31T20:02:19.273Z,10.20
2022-08-31T20:04:47.683Z,8.10
2022-08-31T20:07:17.193Z,9.80
2022-08-31T20:09:45.955Z,11.60
2022-08-31T20:12:14.302Z,13.60
2022-08-31T20:14:44.678Z,13.30
2022-08-31T20:17:13.169Z,13.40
2022-08-31T20:19:42.242Z,14.20
2022-08-31T20:22:10.654Z,14.30
2022-08-31T20:24:43.894Z,12.20
2022-08-31T20:27:18.798Z,11.20
2022-08-31T20:29:48.336Z,18.20
2022-08-31T20:32:16.771Z,13.40
2022-08-31T20:34:45.041Z,15.10
2022-08-31T20:37:13.350Z,14.40
2022-08-31T20:39:42.294Z,13.30
2022-08-31T20:42:10.730Z,16.50
2022-08-31T20:44:39.459Z,13.00
2022-08-31T20:47:29.210Z,13.90
2022-08-31T20:50:03.637Z,13.90
2022-08-31T20:52:35.162Z,11.20
2022-08-31T20:55:05.994Z,12.20
2022-08-31T20:57:39.872Z,10.40
2022-08-31T21:00:10.719Z,10.10
2022-08-31T21:02:42.320Z,12.70
2022-08-31T21:05:38.025Z,9.20
2022-08-31T21:08:00.278Z,11.40
2022-08-31T21:10:36.978Z,7.10
2022-08-31T21:13:12.875Z,7.40
2022-08-31T21:15:45.417Z,8.60
2022-08-31T21:18:19.212Z,8.10
2022-08-31T21:20:48.524Z,9.00
2022-08-31T21:23:16.844Z,7.50
2022-08-31T21:25:46.733Z,9.10
2022-08-31T21:28:18.059Z,7.20
2022-08-31T21:30:49.741Z,8.40
2022-08-31T21:33:19.339Z,7.00
2022-08-31T21:35:47.941Z,11.80
2022-08-31T21:38:18.336Z,9.50
2022-08-31T21:40:50.797Z,8.90
2022-08-31T21:43:19.821Z,9.20
2022-08-31T21:45:50.254Z,9.00
2022-08-31T21:48:25.885Z,10.20
2022-08-31T21:50:55.727Z,7.00
2022-08-31T21:53:27.193Z,7.00
2022-08-31T21:55:55.397Z,8.20
2022-08-31T21:58:23.681Z,8.20
2022-08-31T22:00:52.638Z,6.60
2022-08-31T22:03:22.494Z,9.90
2022-08-31T22:05:50.733Z,8.10
2022-08-31T22:08:20.373Z,8.00
2022-08-31T22:10:49.128Z,6.60
2022-08-31T22:13:17.564Z,7.20
2022-08-31T22:15:47.963Z,9.30
2022-08-31T22:21:05.868Z,11.60
2022-08-31T22:23:35.783Z,9.40
2022-08-31T22:26:04.056Z,9.10
2022-08-31T22:28:32.229Z,10.00
2022-08-31T22:31:02.135Z,8.40
2022-08-31T22:33:30.521Z,9.20
2022-08-31T22:35:58.688Z,8.70
2022-08-31T22:38:27.528Z,10.40
2022-08-31T22:40:56.157Z,7.00
2022-08-31T22:43:24.457Z,7.50
2022-08-31T22:45:53.119Z,9.30
2022-08-31T22:48:21.495Z,8.90
2022-08-31T22:50:49.940Z,14.40
2022-08-31T22:53:18.112Z,8.70
2022-08-31T22:55:46.423Z,12.00
2022-08-31T22:58:14.576Z,10.70
2022-08-31T23:00:46.295Z,11.60
2022-08-31T23:03:15.916Z,10.10
2022-08-31T23:05:44.154Z,11.70
2022-08-31T23:08:14.055Z,9.30
2022-08-31T23:10:42.766Z,10.20
2022-08-31T23:13:10.984Z,9.20
2022-08-31T23:15:40.158Z,11.30
2022-08-31T23:18:10.081Z,11.10
2022-08-31T23:20:38.962Z,13.50
2022-08-31T23:23:07.209Z,12.60
2022-08-31T23:25:36.047Z,12.90
2022-08-31T23:28:04.606Z,13.00
2022-08-31T23:30:32.753Z,11.50
2022-08-31T23:33:02.350Z,11.10
2022-08-31T23:35:30.987Z,12.20
2022-08-31T23:38:00.791Z,8.70
2022-08-31T23:40:31.146Z,9.80
2022-08-31T23:43:00.612Z,13.80
2022-08-31T23:45:28.816Z,8.90
2022-08-31T23:47:57.899Z,9.90
2022-08-31T23:50:26.141Z,13.60
2022-08-31T23:52:54.328Z,10.20
2022-08-31T23:55:28.364Z,9.90
2022-08-31T23:57:58.467Z,10.00
